RMK

Tweets about a recent trend: RMK

@n_O3l7 もう既にファンデーションはRMK使ってるんだけど、本当にルミ子以外はありえん....圧倒的
RT @R_MK_The_Floof: ~Tender Tidders Animated~ --- Something I mess with for the pass few days :D Might make more in the future. I had… https://t.co/MBLCVXBZ9R
11じゃない12連勤か うわあああ
LWIS CZBA 170100Z AUTO 33007KT 280V030 CLR M06/M11 A3011 RMK ADVISORY ONLY=
METAR YBAF 170030Z AUTO 13009KT 9999 // SCT056 29/14 Q1014 RMK RF00.0/000.0
GUADALUPE PASS AMOS,TX (GDP) ASOS reports gust of 50 knots (57.5 mph) from WSW @ 2355Z -- KGDP 170051Z AUTO 25029G4… https://t.co/0OlCURvgI7
GUADALUPE PASS AMOS,TX (GDP) ASOS reports gust of 50 knots (57.5 mph) from WSW @ 2355Z -- KGDP 170051Z AUTO 25029G4… https://t.co/6jl6v9ad14
GUADALUPE PASS AMOS,TX (GDP) ASOS reports gust of 50 knots (57.5 mph) from WSW @ 2355Z -- KGDP 170051Z AUTO 25029G4… https://t.co/kJ5fNSJ4Y7
GUADALUPE PASS AMOS,TX (GDP) ASOS reports gust of 50 knots (57.5 mph) from WSW @ 2355Z -- KGDP 170051Z AUTO 25029G4… https://t.co/QEbMOfoFqG
METAR YBWE 170100Z 22000KT 26/10 Q1011 RMK RF0.0/0.0 UV0
@space__1012 ええええすげえ。行きたいやつ RMKめちゃいいと聞くから気になってるぞ👂
CAPE LISBURNE(AWOS),AK (PALU) ASOS reports gust of 51 knots (58.7 mph) from S @ 0056Z -- PALU 170056Z AUTO 17034G51… https://t.co/MVqFehN5dr
CAPE LISBURNE(AWOS),AK (PALU) ASOS reports gust of 51 knots (58.7 mph) from S @ 0056Z -- PALU 170056Z AUTO 17034G51… https://t.co/fU8mgBeQG2
CAPE LISBURNE(AWOS),AK (PALU) ASOS reports gust of 51 knots (58.7 mph) from S @ 0055Z -- PALU 170055Z AUTO 17033G51… https://t.co/UghjV7taXX
CAPE LISBURNE(AWOS),AK (PALU) ASOS reports gust of 51 knots (58.7 mph) from S @ 0055Z -- PALU 170055Z AUTO 17033G51… https://t.co/EWHfYeuRCX
Mount Washington,NH (MWN) ASOS reports gust of 65 knots (74.8 mph) from NNE @ 0054Z -- KMWN 170054Z 02059G65KT 1/16… https://t.co/DUgdaP0S9l
RT @R_MK_The_Floof: ~Tender Tidders Animated~ --- Something I mess with for the pass few days :D Might make more in the future. I had… https://t.co/MBLCVXBZ9R
RT @R_MK_The_Floof: ~Tender Tidders Animated~ --- Something I mess with for the pass few days :D Might make more in the future. I had… https://t.co/MBLCVXBZ9R
RT @Fashion_Alice01: このツイートをRT&フォローするだけで「RMK、YSL、フラワーリップなど豪華3点セット」が5名に!〆2月28日、当選はDMにて
RT @R_MK_The_Floof: ~Tender Tidders Animated~ --- Something I mess with for the pass few days :D Might make more in the future. I had… https://t.co/MBLCVXBZ9R
RT @R_MK_The_Floof: ~Tender Tidders Animated~ --- Something I mess with for the pass few days :D Might make more in the future. I had… https://t.co/MBLCVXBZ9R
RT @R_MK_The_Floof: ~Tender Tidders Animated~ --- Something I mess with for the pass few days :D Might make more in the future. I had… https://t.co/MBLCVXBZ9R
LWIS CZBA 170045Z AUTO 33005G12KT 300V010 CLR M05/M11 A3011 RMK ADVISORY ONLY=
2019/02/17 00:30 RCSS 170030Z 10010KT 9999 FEW008 BKN020 BKN035 16/13 Q1022 NOSIG RMK A3020
RT @sssrrr_csm: 春のうるちゅるモテネイル第3弾🌸RMKの18P シックピンクです!青みピンクや青ラメがお好きな方におすすめです♡めちゃくちゃ透明感が出て、一気に女の子らしい手になれます💅💓これ塗ってお花見デートしたいですね♡ #おすすめコスメ https://t.co/rGT9NkKW9l